createdAt,value
2023-05-21T00:02:59.924Z,13.09
2023-05-21T00:07:53.640Z,13.01
2023-05-21T00:12:46.545Z,12.95
2023-05-21T00:17:43.771Z,12.88
2023-05-21T00:22:37.511Z,12.82
2023-05-21T00:27:30.541Z,12.79
2023-05-21T00:32:23.491Z,12.73
2023-05-21T00:37:17.080Z,12.69
2023-05-21T00:42:10.251Z,12.65
2023-05-21T00:47:04.247Z,12.58
2023-05-21T00:51:58.122Z,12.53
2023-05-21T00:56:52.614Z,12.47
2023-05-21T01:01:46.748Z,12.43
2023-05-21T01:06:40.091Z,12.38
2023-05-21T01:11:43.005Z,12.32
2023-05-21T01:16:41.560Z,12.24
2023-05-21T01:21:42.650Z,12.19
2023-05-21T01:26:40.258Z,12.14
2023-05-21T01:31:49.672Z,12.06
2023-05-21T01:36:51.124Z,12.00
2023-05-21T01:41:46.762Z,11.92
2023-05-21T01:46:40.990Z,11.83
2023-05-21T01:51:34.872Z,11.75
2023-05-21T01:56:28.704Z,11.69
2023-05-21T02:01:21.735Z,11.62
2023-05-21T02:06:14.686Z,11.51
2023-05-21T02:11:07.895Z,11.44
2023-05-21T02:16:01.851Z,11.40
2023-05-21T02:20:54.783Z,11.36
2023-05-21T02:25:48.274Z,11.28
2023-05-21T02:30:41.292Z,11.19
2023-05-21T02:35:35.031Z,11.15
2023-05-21T02:40:28.534Z,11.10
2023-05-21T02:45:21.938Z,11.09
2023-05-21T02:50:16.307Z,11.07
2023-05-21T02:55:13.276Z,11.01
2023-05-21T03:00:09.384Z,11.00
2023-05-21T03:05:03.036Z,10.99
2023-05-21T03:09:56.932Z,11.00
2023-05-21T03:14:51.479Z,11.02
2023-05-21T03:19:49.272Z,11.06
2023-05-21T03:24:42.575Z,11.12
2023-05-21T03:29:36.389Z,11.18
2023-05-21T03:34:29.608Z,11.23
2023-05-21T03:39:22.684Z,11.36
2023-05-21T03:44:15.726Z,11.54
2023-05-21T03:49:19.210Z,11.61
2023-05-21T03:54:13.251Z,11.70
2023-05-21T03:59:06.377Z,11.76
2023-05-21T04:03:59.442Z,11.83
2023-05-21T04:08:53.451Z,11.88
2023-05-21T04:13:48.253Z,11.99
2023-05-21T04:18:44.875Z,12.08
2023-05-21T04:23:38.980Z,12.16
2023-05-21T04:28:36.569Z,12.28
2023-05-21T04:33:30.546Z,12.39
2023-05-21T04:38:23.512Z,12.48
2023-05-21T04:43:17.319Z,12.61
2023-05-21T04:48:11.161Z,12.74
2023-05-21T04:53:04.577Z,12.86
2023-05-21T04:57:57.551Z,13.05
2023-05-21T05:02:50.690Z,13.27
2023-05-21T05:07:43.674Z,13.47
2023-05-21T05:12:36.634Z,13.59
2023-05-21T05:17:30.876Z,13.79
2023-05-21T05:22:25.389Z,14.00
2023-05-21T05:27:19.186Z,14.17
2023-05-21T05:32:12.533Z,14.37
2023-05-21T05:37:05.810Z,14.56
2023-05-21T05:41:59.320Z,14.74
2023-05-21T05:46:52.484Z,14.95
2023-05-21T05:51:45.473Z,15.11
2023-05-21T05:56:38.429Z,15.35
2023-05-21T06:01:32.233Z,15.62
2023-05-21T06:06:25.231Z,15.96
2023-05-21T06:11:19.276Z,16.42
2023-05-21T06:16:12.809Z,17.60
2023-05-21T06:21:06.103Z,18.20
2023-05-21T06:25:59.226Z,18.93
2023-05-21T06:30:52.902Z,19.74
2023-05-21T06:35:46.085Z,20.86
2023-05-21T06:40:39.041Z,20.93
2023-05-21T06:45:32.357Z,22.22
2023-05-21T06:50:29.525Z,22.48
2023-05-21T06:55:22.775Z,22.22
2023-05-21T07:00:37.026Z,22.49
2023-05-21T07:05:30.361Z,22.53
2023-05-21T07:10:23.272Z,22.45
2023-05-21T07:15:16.389Z,23.25
2023-05-21T07:20:10.327Z,23.69
2023-05-21T07:25:04.738Z,24.43
2023-05-21T07:29:58.069Z,25.52
2023-05-21T07:34:54.212Z,26.96
2023-05-21T07:39:47.922Z,28.55
2023-05-21T07:44:40.956Z,31.19
2023-05-21T07:49:33.834Z,29.94
2023-05-21T07:54:26.910Z,29.30
2023-05-21T07:59:20.055Z,29.69
2023-05-21T08:04:13.854Z,28.75
2023-05-21T08:09:07.311Z,28.95
2023-05-21T08:14:01.008Z,29.04
2023-05-21T08:18:54.058Z,30.95
2023-05-21T08:23:46.995Z,33.28
2023-05-21T08:28:40.796Z,32.46
2023-05-21T08:33:38.377Z,30.52
2023-05-21T08:38:31.671Z,32.28
2023-05-21T08:43:30.044Z,34.29
2023-05-21T08:48:26.251Z,34.02
2023-05-21T08:53:27.473Z,32.03
2023-05-21T08:58:22.618Z,30.44
2023-05-21T09:03:17.167Z,29.77
2023-05-21T09:08:30.958Z,28.39
2023-05-21T09:13:32.909Z,28.12
2023-05-21T09:18:27.759Z,31.11
2023-05-21T09:23:29.989Z,32.72
2023-05-21T09:28:23.091Z,32.10
2023-05-21T09:33:36.277Z,33.05
2023-05-21T09:38:30.460Z,34.98
2023-05-21T09:43:23.645Z,36.30
2023-05-21T09:48:17.248Z,37.08
2023-05-21T09:53:14.502Z,37.40
2023-05-21T09:58:07.496Z,37.52
2023-05-21T10:03:04.711Z,37.72
2023-05-21T10:08:10.458Z,38.10
2023-05-21T10:13:10.008Z,38.22
2023-05-21T10:18:04.997Z,38.32
2023-05-21T10:23:00.657Z,38.36
2023-05-21T10:27:57.192Z,38.38
2023-05-21T10:32:51.046Z,38.47
2023-05-21T10:37:46.416Z,38.31
2023-05-21T10:42:58.406Z,37.91
2023-05-21T10:48:05.212Z,37.68
2023-05-21T10:53:39.804Z,37.46
2023-05-21T10:58:32.589Z,36.79
2023-05-21T11:03:26.556Z,36.24
2023-05-21T11:08:27.042Z,34.97
2023-05-21T11:13:21.978Z,33.42
2023-05-21T11:18:16.134Z,32.46
2023-05-21T11:23:09.931Z,31.70
2023-05-21T11:28:09.677Z,31.10
2023-05-21T11:33:10.243Z,30.70
2023-05-21T11:38:03.249Z,30.26
2023-05-21T11:42:57.818Z,29.96
2023-05-21T11:47:52.967Z,29.84
2023-05-21T11:52:46.810Z,29.79
2023-05-21T11:57:44.394Z,29.48
2023-05-21T12:02:37.729Z,29.40
2023-05-21T12:07:31.415Z,29.45
2023-05-21T12:12:29.344Z,29.52
2023-05-21T12:17:28.505Z,29.65
2023-05-21T12:22:22.073Z,29.62
2023-05-21T12:27:16.946Z,29.70
2023-05-21T12:32:12.772Z,29.51
2023-05-21T12:37:06.747Z,29.34
2023-05-21T12:41:59.667Z,29.34
2023-05-21T12:46:52.556Z,29.18
2023-05-21T12:51:46.535Z,29.29
2023-05-21T12:56:46.464Z,28.97
2023-05-21T13:01:39.335Z,28.32
2023-05-21T13:06:43.238Z,28.23
2023-05-21T13:11:36.142Z,28.47
2023-05-21T13:16:29.283Z,28.63
2023-05-21T13:21:22.635Z,28.56
2023-05-21T13:26:15.684Z,28.57
2023-05-21T13:31:08.777Z,28.41
2023-05-21T13:36:01.708Z,28.31
2023-05-21T13:40:54.508Z,28.22
2023-05-21T13:45:49.984Z,28.28
2023-05-21T13:50:42.852Z,28.34
2023-05-21T13:55:35.712Z,28.19
2023-05-21T14:00:28.590Z,28.04
2023-05-21T14:05:21.477Z,28.05
2023-05-21T14:10:14.319Z,28.23
2023-05-21T14:15:07.948Z,28.22
2023-05-21T14:20:00.818Z,28.03
2023-05-21T14:24:54.067Z,27.75
2023-05-21T14:29:46.973Z,27.73
2023-05-21T14:34:40.545Z,27.48
2023-05-21T14:39:33.383Z,27.33
2023-05-21T14:44:26.236Z,27.21
2023-05-21T14:49:19.098Z,27.10
2023-05-21T14:54:11.936Z,27.03
2023-05-21T14:59:04.792Z,26.91
2023-05-21T15:03:58.873Z,26.77
2023-05-21T15:08:52.035Z,26.59
2023-05-21T15:13:44.892Z,26.52
2023-05-21T15:18:37.752Z,26.40
2023-05-21T15:23:30.692Z,26.32
2023-05-21T15:28:24.154Z,26.32
2023-05-21T15:33:16.984Z,26.27
2023-05-21T15:38:09.931Z,26.15
2023-05-21T15:43:03.088Z,25.98
2023-05-21T15:47:56.105Z,25.95
2023-05-21T15:52:50.387Z,25.88
2023-05-21T15:57:45.193Z,25.77
2023-05-21T16:02:38.216Z,25.69
2023-05-21T16:07:31.258Z,25.65
2023-05-21T16:12:24.126Z,25.47
2023-05-21T16:17:17.129Z,25.29
2023-05-21T16:22:10.855Z,25.18
2023-05-21T16:27:04.211Z,25.13
2023-05-21T16:31:57.236Z,25.08
2023-05-21T16:36:51.839Z,24.96
2023-05-21T16:41:44.938Z,24.76
2023-05-21T16:46:38.010Z,24.62
2023-05-21T16:51:31.614Z,24.48
2023-05-21T16:56:29.391Z,24.27
2023-05-21T17:01:22.396Z,24.15
2023-05-21T17:06:17.618Z,24.04
2023-05-21T17:11:10.728Z,23.86
2023-05-21T17:16:03.863Z,23.66
2023-05-21T17:20:59.024Z,23.44
2023-05-21T17:25:54.486Z,23.20
2023-05-21T17:30:49.663Z,22.90
2023-05-21T17:35:42.997Z,22.58
2023-05-21T17:40:36.424Z,22.25
2023-05-21T17:45:29.316Z,21.92
2023-05-21T17:50:22.166Z,21.58
2023-05-21T17:55:15.051Z,21.24
2023-05-21T18:00:09.188Z,20.92
2023-05-21T18:05:08.066Z,20.59
2023-05-21T18:10:01.395Z,20.32
2023-05-21T18:14:54.550Z,20.01
2023-05-21T18:19:47.593Z,19.73
2023-05-21T18:24:40.452Z,19.47
2023-05-21T18:29:33.280Z,19.19
2023-05-21T18:34:26.100Z,18.95
2023-05-21T18:39:24.147Z,18.74
2023-05-21T18:44:16.983Z,18.51
2023-05-21T18:49:09.852Z,18.25
2023-05-21T18:54:02.910Z,17.93
2023-05-21T18:58:56.110Z,17.72
2023-05-21T19:03:49.192Z,17.47
2023-05-21T19:08:42.152Z,17.21
2023-05-21T19:13:35.837Z,17.04
2023-05-21T19:18:31.774Z,16.91
2023-05-21T19:23:25.355Z,16.74
2023-05-21T19:28:18.999Z,16.57
2023-05-21T19:33:12.260Z,16.47
2023-05-21T19:38:06.997Z,16.37
2023-05-21T19:42:59.975Z,16.25
2023-05-21T19:47:52.930Z,16.15
2023-05-21T19:52:45.920Z,16.04
2023-05-21T19:57:39.805Z,15.93
2023-05-21T20:02:34.849Z,15.78
2023-05-21T20:07:27.734Z,15.58
2023-05-21T20:12:20.867Z,15.40
2023-05-21T20:17:15.368Z,15.25
2023-05-21T20:22:08.980Z,15.12
2023-05-21T20:27:02.692Z,15.04
2023-05-21T20:31:55.743Z,14.95
2023-05-21T20:36:48.731Z,14.86
2023-05-21T20:41:44.916Z,14.76
2023-05-21T20:46:41.333Z,14.67
2023-05-21T20:51:34.867Z,14.54
2023-05-21T20:56:40.982Z,14.38
2023-05-21T21:01:38.035Z,14.28
2023-05-21T21:06:32.042Z,14.17
2023-05-21T21:11:25.277Z,14.06
2023-05-21T21:16:18.238Z,14.04
2023-05-21T21:21:11.612Z,13.95
2023-05-21T21:26:05.124Z,13.83
2023-05-21T21:30:58.035Z,13.80
2023-05-21T21:35:51.565Z,13.79
2023-05-21T21:40:44.467Z,13.69
2023-05-21T21:45:37.432Z,13.51
2023-05-21T21:50:30.338Z,13.36
2023-05-21T21:55:24.473Z,13.22
2023-05-21T22:00:18.394Z,13.09
2023-05-21T22:05:14.972Z,12.97
2023-05-21T22:10:08.337Z,12.87
2023-05-21T22:15:05.380Z,12.82
2023-05-21T22:19:58.613Z,12.72
2023-05-21T22:24:51.608Z,12.56
2023-05-21T22:29:44.592Z,12.50
2023-05-21T22:34:37.599Z,12.45
2023-05-21T22:39:30.507Z,12.37
2023-05-21T22:44:23.348Z,12.34
2023-05-21T22:49:16.535Z,12.29
2023-05-21T22:54:09.702Z,12.19
2023-05-21T22:59:02.606Z,12.09
2023-05-21T23:03:55.429Z,12.03
2023-05-21T23:08:48.292Z,12.03
2023-05-21T23:13:41.370Z,12.04
2023-05-21T23:18:34.452Z,12.04
2023-05-21T23:23:27.342Z,11.98
2023-05-21T23:28:21.812Z,11.92
2023-05-21T23:33:15.312Z,11.83
2023-05-21T23:38:08.303Z,11.74
2023-05-21T23:43:01.224Z,11.69
2023-05-21T23:47:54.183Z,11.64
2023-05-21T23:52:47.125Z,11.60
2023-05-21T23:57:40.072Z,11.53
